sensor_id;sensor_type;location;lat;lon;timestamp;temperature;humidity
12303;DHT22;6214;48.012;7.862;2023-05-07T00:02:01;15.60;99.90
12303;DHT22;6214;48.012;7.862;2023-05-07T00:04:28;15.50;99.90
12303;DHT22;6214;48.012;7.862;2023-05-07T00:06:55;15.50;99.90
12303;DHT22;6214;48.012;7.862;2023-05-07T00:09:23;15.60;99.90
12303;DHT22;6214;48.012;7.862;2023-05-07T00:11:50;15.50;99.90
12303;DHT22;6214;48.012;7.862;2023-05-07T00:14:17;15.40;99.90
12303;DHT22;6214;48.012;7.862;2023-05-07T00:16:44;15.30;99.90
12303;DHT22;6214;48.012;7.862;2023-05-07T00:19:11;15.40;99.90
12303;DHT22;6214;48.012;7.862;2023-05-07T00:21:38;15.40;99.90
12303;DHT22;6214;48.012;7.862;2023-05-07T00:24:05;15.30;99.90
12303;DHT22;6214;48.012;7.862;2023-05-07T00:26:32;15.50;99.90
12303;DHT22;6214;48.012;7.862;2023-05-07T00:28:59;15.60;99.90
12303;DHT22;6214;48.012;7.862;2023-05-07T00:31:26;15.70;99.90
12303;DHT22;6214;48.012;7.862;2023-05-07T00:33:53;15.70;99.90
12303;DHT22;6214;48.012;7.862;2023-05-07T00:36:20;15.70;99.90
12303;DHT22;6214;48.012;7.862;2023-05-07T00:38:47;15.60;99.90
12303;DHT22;6214;48.012;7.862;2023-05-07T00:41:15;15.70;99.90
12303;DHT22;6214;48.012;7.862;2023-05-07T00:43:42;15.50;99.90
12303;DHT22;6214;48.012;7.862;2023-05-07T00:46:09;15.50;99.90
12303;DHT22;6214;48.012;7.862;2023-05-07T00:48:37;15.40;99.90
12303;DHT22;6214;48.012;7.862;2023-05-07T00:51:04;15.40;99.90
12303;DHT22;6214;48.012;7.862;2023-05-07T00:53:31;15.20;99.90
12303;DHT22;6214;48.012;7.862;2023-05-07T00:55:58;15.20;99.90
12303;DHT22;6214;48.012;7.862;2023-05-07T00:58:27;15.30;99.90
12303;DHT22;6214;48.012;7.862;2023-05-07T01:00:54;15.30;99.90
12303;DHT22;6214;48.012;7.862;2023-05-07T01:03:21;15.20;99.90
12303;DHT22;6214;48.012;7.862;2023-05-07T01:05:50;15.30;99.90
12303;DHT22;6214;48.012;7.862;2023-05-07T01:08:18;15.30;99.90
12303;DHT22;6214;48.012;7.862;2023-05-07T01:10:46;15.30;99.90
12303;DHT22;6214;48.012;7.862;2023-05-07T01:13:14;15.50;99.90
12303;DHT22;6214;48.012;7.862;2023-05-07T01:15:41;15.50;99.90
12303;DHT22;6214;48.012;7.862;2023-05-07T01:18:09;15.30;99.90
12303;DHT22;6214;48.012;7.862;2023-05-07T01:20:36;15.30;99.90
12303;DHT22;6214;48.012;7.862;2023-05-07T01:23:04;15.30;99.90
12303;DHT22;6214;48.012;7.862;2023-05-07T01:25:32;15.20;99.90
12303;DHT22;6214;48.012;7.862;2023-05-07T01:27:59;15.30;99.90
12303;DHT22;6214;48.012;7.862;2023-05-07T01:30:28;15.30;99.90
12303;DHT22;6214;48.012;7.862;2023-05-07T01:33:09;15.40;99.90
12303;DHT22;6214;48.012;7.862;2023-05-07T01:35:42;15.40;99.90
12303;DHT22;6214;48.012;7.862;2023-05-07T01:38:10;15.50;99.90
12303;DHT22;6214;48.012;7.862;2023-05-07T01:40:38;15.40;99.90
12303;DHT22;6214;48.012;7.862;2023-05-07T01:43:05;15.20;99.90
12303;DHT22;6214;48.012;7.862;2023-05-07T01:45:34;15.30;99.90
12303;DHT22;6214;48.012;7.862;2023-05-07T01:48:03;15.30;99.90
12303;DHT22;6214;48.012;7.862;2023-05-07T01:50:31;15.10;99.90
12303;DHT22;6214;48.012;7.862;2023-05-07T01:52:59;15.00;99.90
12303;DHT22;6214;48.012;7.862;2023-05-07T01:55:26;14.90;99.90
12303;DHT22;6214;48.012;7.862;2023-05-07T01:57:53;15.00;99.90
12303;DHT22;6214;48.012;7.862;2023-05-07T02:00:20;15.00;99.90
12303;DHT22;6214;48.012;7.862;2023-05-07T02:02:47;14.80;99.90
12303;DHT22;6214;48.012;7.862;2023-05-07T02:05:14;14.70;99.90
12303;DHT22;6214;48.012;7.862;2023-05-07T02:07:41;14.70;99.90
12303;DHT22;6214;48.012;7.862;2023-05-07T02:10:09;14.80;99.90
12303;DHT22;6214;48.012;7.862;2023-05-07T02:12:36;14.80;99.90
12303;DHT22;6214;48.012;7.862;2023-05-07T02:15:04;14.70;99.90
12303;DHT22;6214;48.012;7.862;2023-05-07T02:17:32;14.70;99.90
12303;DHT22;6214;48.012;7.862;2023-05-07T02:19:59;14.60;99.90
12303;DHT22;6214;48.012;7.862;2023-05-07T02:22:26;14.50;99.90
12303;DHT22;6214;48.012;7.862;2023-05-07T02:24:53;14.50;99.90
12303;DHT22;6214;48.012;7.862;2023-05-07T02:27:20;14.50;99.90
12303;DHT22;6214;48.012;7.862;2023-05-07T02:29:47;14.50;99.90
12303;DHT22;6214;48.012;7.862;2023-05-07T02:32:14;14.40;99.90
12303;DHT22;6214;48.012;7.862;2023-05-07T02:34:42;14.30;99.90
12303;DHT22;6214;48.012;7.862;2023-05-07T02:37:09;14.40;99.90
12303;DHT22;6214;48.012;7.862;2023-05-07T02:39:36;14.50;99.90
12303;DHT22;6214;48.012;7.862;2023-05-07T02:42:03;14.40;99.90
12303;DHT22;6214;48.012;7.862;2023-05-07T02:44:30;14.30;99.90
12303;DHT22;6214;48.012;7.862;2023-05-07T02:46:58;14.30;99.90
12303;DHT22;6214;48.012;7.862;2023-05-07T02:49:25;14.20;99.90
12303;DHT22;6214;48.012;7.862;2023-05-07T02:51:52;14.10;99.90
12303;DHT22;6214;48.012;7.862;2023-05-07T02:54:19;14.20;99.90
12303;DHT22;6214;48.012;7.862;2023-05-07T02:56:46;14.10;99.90
12303;DHT22;6214;48.012;7.862;2023-05-07T02:59:13;14.10;99.90
12303;DHT22;6214;48.012;7.862;2023-05-07T03:01:40;14.00;99.90
12303;DHT22;6214;48.012;7.862;2023-05-07T03:04:08;14.10;99.90
12303;DHT22;6214;48.012;7.862;2023-05-07T03:06:35;14.10;99.90
12303;DHT22;6214;48.012;7.862;2023-05-07T03:09:02;14.20;99.90
12303;DHT22;6214;48.012;7.862;2023-05-07T03:11:29;14.30;99.90
12303;DHT22;6214;48.012;7.862;2023-05-07T03:13:56;14.10;99.90
12303;DHT22;6214;48.012;7.862;2023-05-07T03:16:24;14.10;99.90
12303;DHT22;6214;48.012;7.862;2023-05-07T03:18:51;13.90;99.90
12303;DHT22;6214;48.012;7.862;2023-05-07T03:21:18;14.00;99.90
12303;DHT22;6214;48.012;7.862;2023-05-07T03:23:45;14.00;99.90
12303;DHT22;6214;48.012;7.862;2023-05-07T03:26:12;13.90;99.90
12303;DHT22;6214;48.012;7.862;2023-05-07T03:28:39;13.90;99.90
12303;DHT22;6214;48.012;7.862;2023-05-07T03:31:06;13.90;99.90
12303;DHT22;6214;48.012;7.862;2023-05-07T03:33:34;13.80;99.90
12303;DHT22;6214;48.012;7.862;2023-05-07T03:36:01;13.90;99.90
12303;DHT22;6214;48.012;7.862;2023-05-07T03:38:28;13.80;99.90
12303;DHT22;6214;48.012;7.862;2023-05-07T03:40:55;13.90;99.90
12303;DHT22;6214;48.012;7.862;2023-05-07T03:43:22;14.00;99.90
12303;DHT22;6214;48.012;7.862;2023-05-07T03:45:49;14.00;99.90
12303;DHT22;6214;48.012;7.862;2023-05-07T03:48:16;13.90;99.90
12303;DHT22;6214;48.012;7.862;2023-05-07T03:50:43;14.00;99.90
12303;DHT22;6214;48.012;7.862;2023-05-07T03:53:10;13.80;99.90
12303;DHT22;6214;48.012;7.862;2023-05-07T03:55:37;13.90;99.90
12303;DHT22;6214;48.012;7.862;2023-05-07T03:58:05;13.80;99.90
12303;DHT22;6214;48.012;7.862;2023-05-07T04:00:32;13.70;99.90
12303;DHT22;6214;48.012;7.862;2023-05-07T04:03:04;13.90;99.90
12303;DHT22;6214;48.012;7.862;2023-05-07T04:05:31;13.80;99.90
12303;DHT22;6214;48.012;7.862;2023-05-07T04:07:59;13.90;99.90
12303;DHT22;6214;48.012;7.862;2023-05-07T04:10:26;13.70;99.90
12303;DHT22;6214;48.012;7.862;2023-05-07T04:12:54;13.70;99.90
12303;DHT22;6214;48.012;7.862;2023-05-07T04:15:22;13.70;99.90
12303;DHT22;6214;48.012;7.862;2023-05-07T04:17:49;13.80;99.90
12303;DHT22;6214;48.012;7.862;2023-05-07T04:20:17;13.70;99.90
12303;DHT22;6214;48.012;7.862;2023-05-07T04:22:44;13.80;99.90
12303;DHT22;6214;48.012;7.862;2023-05-07T04:25:11;13.90;99.90
12303;DHT22;6214;48.012;7.862;2023-05-07T04:27:38;13.90;99.90
12303;DHT22;6214;48.012;7.862;2023-05-07T04:30:06;13.90;99.90
12303;DHT22;6214;48.012;7.862;2023-05-07T04:32:33;14.00;99.90
12303;DHT22;6214;48.012;7.862;2023-05-07T04:35:00;14.20;99.90
12303;DHT22;6214;48.012;7.862;2023-05-07T04:37:27;14.20;99.90
12303;DHT22;6214;48.012;7.862;2023-05-07T04:39:54;14.20;99.90
12303;DHT22;6214;48.012;7.862;2023-05-07T04:42:21;14.20;99.90
12303;DHT22;6214;48.012;7.862;2023-05-07T04:44:53;14.20;99.90
12303;DHT22;6214;48.012;7.862;2023-05-07T04:47:20;14.30;99.90
12303;DHT22;6214;48.012;7.862;2023-05-07T04:49:47;14.40;99.90
12303;DHT22;6214;48.012;7.862;2023-05-07T04:52:14;14.60;99.90
12303;DHT22;6214;48.012;7.862;2023-05-07T04:54:42;14.70;99.90
12303;DHT22;6214;48.012;7.862;2023-05-07T04:57:09;15.00;99.90
12303;DHT22;6214;48.012;7.862;2023-05-07T04:59:36;15.10;99.90
12303;DHT22;6214;48.012;7.862;2023-05-07T05:02:03;15.30;99.90
12303;DHT22;6214;48.012;7.862;2023-05-07T05:04:30;15.50;99.90
12303;DHT22;6214;48.012;7.862;2023-05-07T05:06:58;15.50;99.90
12303;DHT22;6214;48.012;7.862;2023-05-07T05:09:25;15.40;99.90
12303;DHT22;6214;48.012;7.862;2023-05-07T05:11:52;15.40;99.90
12303;DHT22;6214;48.012;7.862;2023-05-07T05:14:19;15.50;99.90
12303;DHT22;6214;48.012;7.862;2023-05-07T05:16:46;15.50;99.90
12303;DHT22;6214;48.012;7.862;2023-05-07T05:19:13;15.60;99.90
12303;DHT22;6214;48.012;7.862;2023-05-07T05:21:40;15.60;99.90
12303;DHT22;6214;48.012;7.862;2023-05-07T05:24:07;15.90;99.90
12303;DHT22;6214;48.012;7.862;2023-05-07T05:26:34;16.00;99.90
12303;DHT22;6214;48.012;7.862;2023-05-07T05:29:01;16.20;99.90
12303;DHT22;6214;48.012;7.862;2023-05-07T05:31:29;16.40;99.90
12303;DHT22;6214;48.012;7.862;2023-05-07T05:33:57;16.50;99.90
12303;DHT22;6214;48.012;7.862;2023-05-07T05:36:24;16.60;99.90
12303;DHT22;6214;48.012;7.862;2023-05-07T05:38:50;16.70;99.90
12303;DHT22;6214;48.012;7.862;2023-05-07T05:41:17;16.90;99.90
12303;DHT22;6214;48.012;7.862;2023-05-07T05:43:44;17.20;99.90
12303;DHT22;6214;48.012;7.862;2023-05-07T05:46:11;17.20;99.90
12303;DHT22;6214;48.012;7.862;2023-05-07T05:48:38;17.40;99.90
12303;DHT22;6214;48.012;7.862;2023-05-07T05:51:05;17.40;99.90
12303;DHT22;6214;48.012;7.862;2023-05-07T05:53:32;17.40;99.90
12303;DHT22;6214;48.012;7.862;2023-05-07T05:55:59;17.40;99.90
12303;DHT22;6214;48.012;7.862;2023-05-07T05:58:27;17.30;99.90
12303;DHT22;6214;48.012;7.862;2023-05-07T06:00:54;17.50;99.90
12303;DHT22;6214;48.012;7.862;2023-05-07T06:03:21;17.90;99.90
12303;DHT22;6214;48.012;7.862;2023-05-07T06:05:48;18.20;99.90
12303;DHT22;6214;48.012;7.862;2023-05-07T06:08:15;18.70;99.90
12303;DHT22;6214;48.012;7.862;2023-05-07T06:10:42;19.40;99.90
12303;DHT22;6214;48.012;7.862;2023-05-07T06:13:10;19.60;99.90
12303;DHT22;6214;48.012;7.862;2023-05-07T06:15:37;19.30;99.90
12303;DHT22;6214;48.012;7.862;2023-05-07T06:18:04;19.30;99.90
12303;DHT22;6214;48.012;7.862;2023-05-07T06:20:31;19.60;99.90
12303;DHT22;6214;48.012;7.862;2023-05-07T06:22:58;19.60;99.90
12303;DHT22;6214;48.012;7.862;2023-05-07T06:25:25;19.30;99.90
12303;DHT22;6214;48.012;7.862;2023-05-07T06:27:52;19.40;99.90
12303;DHT22;6214;48.012;7.862;2023-05-07T06:30:19;19.50;99.90
12303;DHT22;6214;48.012;7.862;2023-05-07T06:32:46;19.80;99.90
12303;DHT22;6214;48.012;7.862;2023-05-07T06:35:13;19.70;99.90
12303;DHT22;6214;48.012;7.862;2023-05-07T06:37:41;19.90;99.90
12303;DHT22;6214;48.012;7.862;2023-05-07T06:40:09;19.90;99.90
12303;DHT22;6214;48.012;7.862;2023-05-07T06:42:37;20.10;99.90
12303;DHT22;6214;48.012;7.862;2023-05-07T06:45:05;20.10;99.90
12303;DHT22;6214;48.012;7.862;2023-05-07T06:47:32;19.90;99.90
12303;DHT22;6214;48.012;7.862;2023-05-07T06:49:59;19.90;99.90
12303;DHT22;6214;48.012;7.862;2023-05-07T06:52:26;19.90;99.90
12303;DHT22;6214;48.012;7.862;2023-05-07T06:54:53;20.40;99.90
12303;DHT22;6214;48.012;7.862;2023-05-07T06:57:20;20.80;99.90
12303;DHT22;6214;48.012;7.862;2023-05-07T06:59:47;21.30;99.90
12303;DHT22;6214;48.012;7.862;2023-05-07T07:02:14;21.90;99.90
12303;DHT22;6214;48.012;7.862;2023-05-07T07:04:44;22.40;99.90
12303;DHT22;6214;48.012;7.862;2023-05-07T07:07:12;22.50;99.90
12303;DHT22;6214;48.012;7.862;2023-05-07T07:09:39;22.60;99.90
12303;DHT22;6214;48.012;7.862;2023-05-07T07:12:06;22.80;99.90
12303;DHT22;6214;48.012;7.862;2023-05-07T07:14:33;23.90;99.90
12303;DHT22;6214;48.012;7.862;2023-05-07T07:17:00;25.70;99.90
12303;DHT22;6214;48.012;7.862;2023-05-07T07:19:27;27.10;99.90
12303;DHT22;6214;48.012;7.862;2023-05-07T07:21:54;28.30;99.90
12303;DHT22;6214;48.012;7.862;2023-05-07T07:24:21;30.90;99.90
12303;DHT22;6214;48.012;7.862;2023-05-07T07:26:48;32.20;99.90
12303;DHT22;6214;48.012;7.862;2023-05-07T07:29:15;32.90;99.90
12303;DHT22;6214;48.012;7.862;2023-05-07T07:31:42;32.80;97.40
12303;DHT22;6214;48.012;7.862;2023-05-07T07:34:09;33.10;96.80
12303;DHT22;6214;48.012;7.862;2023-05-07T07:36:36;33.90;95.80
12303;DHT22;6214;48.012;7.862;2023-05-07T07:39:12;34.10;93.60
12303;DHT22;6214;48.012;7.862;2023-05-07T07:41:40;33.70;92.80
12303;DHT22;6214;48.012;7.862;2023-05-07T07:44:07;34.80;91.20
12303;DHT22;6214;48.012;7.862;2023-05-07T07:46:35;35.80;90.40
12303;DHT22;6214;48.012;7.862;2023-05-07T07:49:02;37.10;84.10
12303;DHT22;6214;48.012;7.862;2023-05-07T07:51:29;37.30;80.00
12303;DHT22;6214;48.012;7.862;2023-05-07T07:53:57;38.00;77.70
12303;DHT22;6214;48.012;7.862;2023-05-07T07:56:24;38.80;73.60
12303;DHT22;6214;48.012;7.862;2023-05-07T07:58:51;40.00;68.00
12303;DHT22;6214;48.012;7.862;2023-05-07T08:01:18;40.50;63.60
12303;DHT22;6214;48.012;7.862;2023-05-07T08:03:46;39.60;60.60
12303;DHT22;6214;48.012;7.862;2023-05-07T08:06:13;39.70;61.40
12303;DHT22;6214;48.012;7.862;2023-05-07T08:08:41;39.60;59.80
12303;DHT22;6214;48.012;7.862;2023-05-07T08:11:08;40.60;59.50
12303;DHT22;6214;48.012;7.862;2023-05-07T08:13:35;39.00;57.30
12303;DHT22;6214;48.012;7.862;2023-05-07T08:16:02;37.40;59.20
12303;DHT22;6214;48.012;7.862;2023-05-07T08:18:29;36.40;62.70
12303;DHT22;6214;48.012;7.862;2023-05-07T08:20:57;37.70;63.70
12303;DHT22;6214;48.012;7.862;2023-05-07T08:23:23;34.60;64.00
12303;DHT22;6214;48.012;7.862;2023-05-07T08:25:51;34.20;67.40
12303;DHT22;6214;48.012;7.862;2023-05-07T08:28:18;33.30;69.30
12303;DHT22;6214;48.012;7.862;2023-05-07T08:30:46;32.80;72.10
12303;DHT22;6214;48.012;7.862;2023-05-07T08:33:13;31.50;73.00
12303;DHT22;6214;48.012;7.862;2023-05-07T08:35:40;30.60;76.70
12303;DHT22;6214;48.012;7.862;2023-05-07T08:38:07;29.30;80.60
12303;DHT22;6214;48.012;7.862;2023-05-07T08:40:39;28.30;88.50
12303;DHT22;6214;48.012;7.862;2023-05-07T08:43:08;27.70;91.20
12303;DHT22;6214;48.012;7.862;2023-05-07T08:45:35;28.20;92.50
12303;DHT22;6214;48.012;7.862;2023-05-07T08:48:14;28.50;93.80
12303;DHT22;6214;48.012;7.862;2023-05-07T08:50:42;29.00;93.40
12303;DHT22;6214;48.012;7.862;2023-05-07T08:53:09;29.70;93.00
12303;DHT22;6214;48.012;7.862;2023-05-07T08:55:36;30.30;92.90
12303;DHT22;6214;48.012;7.862;2023-05-07T08:58:03;30.20;92.00
12303;DHT22;6214;48.012;7.862;2023-05-07T09:00:31;31.10;93.10
12303;DHT22;6214;48.012;7.862;2023-05-07T09:03:00;32.20;92.40
12303;DHT22;6214;48.012;7.862;2023-05-07T09:05:27;33.50;90.60
12303;DHT22;6214;48.012;7.862;2023-05-07T09:07:54;34.40;86.90
12303;DHT22;6214;48.012;7.862;2023-05-07T09:10:24;35.60;82.60
12303;DHT22;6214;48.012;7.862;2023-05-07T09:12:52;35.60;77.90
12303;DHT22;6214;48.012;7.862;2023-05-07T09:15:19;34.90;78.40
12303;DHT22;6214;48.012;7.862;2023-05-07T09:17:47;34.30;80.30
12303;DHT22;6214;48.012;7.862;2023-05-07T09:20:14;33.90;82.00
12303;DHT22;6214;48.012;7.862;2023-05-07T09:22:41;33.60;83.80
12303;DHT22;6214;48.012;7.862;2023-05-07T09:25:08;34.00;84.40
12303;DHT22;6214;48.012;7.862;2023-05-07T09:27:37;34.50;81.80
12303;DHT22;6214;48.012;7.862;2023-05-07T09:30:05;33.80;83.60
12303;DHT22;6214;48.012;7.862;2023-05-07T09:32:36;33.00;85.40
12303;DHT22;6214;48.012;7.862;2023-05-07T09:35:14;32.70;86.30
12303;DHT22;6214;48.012;7.862;2023-05-07T09:37:42;32.90;88.70
12303;DHT22;6214;48.012;7.862;2023-05-07T09:40:23;32.20;88.60
12303;DHT22;6214;48.012;7.862;2023-05-07T09:42:50;30.80;90.90
12303;DHT22;6214;48.012;7.862;2023-05-07T09:45:27;30.30;92.80
12303;DHT22;6214;48.012;7.862;2023-05-07T09:47:56;30.80;92.10
12303;DHT22;6214;48.012;7.862;2023-05-07T09:50:29;30.40;92.80
12303;DHT22;6214;48.012;7.862;2023-05-07T09:52:57;29.80;93.80
12303;DHT22;6214;48.012;7.862;2023-05-07T09:55:24;29.10;95.30
12303;DHT22;6214;48.012;7.862;2023-05-07T09:57:53;28.50;96.60
12303;DHT22;6214;48.012;7.862;2023-05-07T10:00:21;27.80;97.80
12303;DHT22;6214;48.012;7.862;2023-05-07T10:02:51;27.10;99.90
12303;DHT22;6214;48.012;7.862;2023-05-07T10:05:19;26.20;99.90
12303;DHT22;6214;48.012;7.862;2023-05-07T10:07:49;25.30;99.90
12303;DHT22;6214;48.012;7.862;2023-05-07T10:10:17;24.80;99.90
12303;DHT22;6214;48.012;7.862;2023-05-07T10:12:45;24.30;99.90
12303;DHT22;6214;48.012;7.862;2023-05-07T10:15:12;23.90;99.90
12303;DHT22;6214;48.012;7.862;2023-05-07T10:17:41;23.30;99.90
12303;DHT22;6214;48.012;7.862;2023-05-07T10:20:09;22.80;99.90
12303;DHT22;6214;48.012;7.862;2023-05-07T10:22:48;22.40;99.90
12303;DHT22;6214;48.012;7.862;2023-05-07T10:25:21;22.30;99.90
12303;DHT22;6214;48.012;7.862;2023-05-07T10:27:50;21.90;99.90
12303;DHT22;6214;48.012;7.862;2023-05-07T10:30:32;21.20;99.90
12303;DHT22;6214;48.012;7.862;2023-05-07T10:33:06;20.70;99.90
12303;DHT22;6214;48.012;7.862;2023-05-07T10:35:41;20.40;99.90
12303;DHT22;6214;48.012;7.862;2023-05-07T10:38:09;20.00;99.90
12303;DHT22;6214;48.012;7.862;2023-05-07T10:40:37;20.10;99.90
12303;DHT22;6214;48.012;7.862;2023-05-07T10:43:05;19.50;99.90
12303;DHT22;6214;48.012;7.862;2023-05-07T10:45:36;19.40;99.90
12303;DHT22;6214;48.012;7.862;2023-05-07T10:48:14;19.40;99.90
12303;DHT22;6214;48.012;7.862;2023-05-07T10:50:45;19.30;99.90
12303;DHT22;6214;48.012;7.862;2023-05-07T11:01:01;20.20;99.90
12303;DHT22;6214;48.012;7.862;2023-05-07T11:03:29;20.50;99.90
12303;DHT22;6214;48.012;7.862;2023-05-07T11:06:12;20.80;99.90
12303;DHT22;6214;48.012;7.862;2023-05-07T11:11:19;21.80;99.90
12303;DHT22;6214;48.012;7.862;2023-05-07T11:13:49;22.30;99.90
12303;DHT22;6214;48.012;7.862;2023-05-07T11:18:52;22.80;99.90
12303;DHT22;6214;48.012;7.862;2023-05-07T11:21:35;23.00;99.90
12303;DHT22;6214;48.012;7.862;2023-05-07T11:24:08;23.40;99.90
12303;DHT22;6214;48.012;7.862;2023-05-07T11:26:48;23.50;99.90
12303;DHT22;6214;48.012;7.862;2023-05-07T11:29:17;23.90;99.90
12303;DHT22;6214;48.012;7.862;2023-05-07T11:31:50;24.00;99.90
12303;DHT22;6214;48.012;7.862;2023-05-07T11:34:42;23.80;99.90
12303;DHT22;6214;48.012;7.862;2023-05-07T11:37:09;24.00;99.90
12303;DHT22;6214;48.012;7.862;2023-05-07T11:39:36;23.90;99.90
12303;DHT22;6214;48.012;7.862;2023-05-07T11:42:03;24.20;99.90
12303;DHT22;6214;48.012;7.862;2023-05-07T11:44:45;24.20;99.90
12303;DHT22;6214;48.012;7.862;2023-05-07T11:47:20;24.30;99.90
12303;DHT22;6214;48.012;7.862;2023-05-07T11:49:51;24.10;99.90
12303;DHT22;6214;48.012;7.862;2023-05-07T11:52:20;23.70;99.90
12303;DHT22;6214;48.012;7.862;2023-05-07T11:54:54;23.60;99.90
12303;DHT22;6214;48.012;7.862;2023-05-07T11:57:24;23.30;99.90
12303;DHT22;6214;48.012;7.862;2023-05-07T11:59:59;23.30;99.90
12303;DHT22;6214;48.012;7.862;2023-05-07T12:02:28;23.20;99.90
12303;DHT22;6214;48.012;7.862;2023-05-07T12:04:55;23.40;99.90
12303;DHT22;6214;48.012;7.862;2023-05-07T12:07:24;23.40;99.90
12303;DHT22;6214;48.012;7.862;2023-05-07T12:09:52;23.40;99.90
12303;DHT22;6214;48.012;7.862;2023-05-07T12:12:19;23.20;99.90
12303;DHT22;6214;48.012;7.862;2023-05-07T12:14:46;22.80;99.90
12303;DHT22;6214;48.012;7.862;2023-05-07T12:17:14;23.00;99.90
12303;DHT22;6214;48.012;7.862;2023-05-07T12:19:43;23.00;99.90
12303;DHT22;6214;48.012;7.862;2023-05-07T12:22:12;23.20;99.90
12303;DHT22;6214;48.012;7.862;2023-05-07T12:24:46;23.50;99.90
12303;DHT22;6214;48.012;7.862;2023-05-07T12:27:15;23.50;99.90
12303;DHT22;6214;48.012;7.862;2023-05-07T12:29:46;23.90;99.90
12303;DHT22;6214;48.012;7.862;2023-05-07T12:32:17;23.80;99.90
12303;DHT22;6214;48.012;7.862;2023-05-07T12:34:45;23.50;99.90
12303;DHT22;6214;48.012;7.862;2023-05-07T12:37:13;23.40;99.90
12303;DHT22;6214;48.012;7.862;2023-05-07T12:39:59;23.60;99.90
12303;DHT22;6214;48.012;7.862;2023-05-07T12:42:35;23.70;99.90
12303;DHT22;6214;48.012;7.862;2023-05-07T12:45:12;23.60;99.90
12303;DHT22;6214;48.012;7.862;2023-05-07T12:47:47;23.60;99.90
12303;DHT22;6214;48.012;7.862;2023-05-07T12:50:15;23.40;99.90
12303;DHT22;6214;48.012;7.862;2023-05-07T12:52:45;23.30;99.90
12303;DHT22;6214;48.012;7.862;2023-05-07T12:55:14;23.50;99.90
12303;DHT22;6214;48.012;7.862;2023-05-07T12:57:43;22.90;99.90
12303;DHT22;6214;48.012;7.862;2023-05-07T13:00:11;23.00;99.90
12303;DHT22;6214;48.012;7.862;2023-05-07T13:02:39;23.20;99.90
12303;DHT22;6214;48.012;7.862;2023-05-07T13:05:07;23.30;99.90
12303;DHT22;6214;48.012;7.862;2023-05-07T13:07:35;23.20;99.90
12303;DHT22;6214;48.012;7.862;2023-05-07T13:10:04;23.40;99.90
12303;DHT22;6214;48.012;7.862;2023-05-07T13:12:31;23.60;99.90
12303;DHT22;6214;48.012;7.862;2023-05-07T13:14:59;23.70;99.90
12303;DHT22;6214;48.012;7.862;2023-05-07T13:17:26;23.10;99.90
12303;DHT22;6214;48.012;7.862;2023-05-07T13:19:53;22.70;99.90
12303;DHT22;6214;48.012;7.862;2023-05-07T13:22:20;22.40;99.90
12303;DHT22;6214;48.012;7.862;2023-05-07T13:24:47;22.30;99.90
12303;DHT22;6214;48.012;7.862;2023-05-07T13:27:14;22.60;99.90
12303;DHT22;6214;48.012;7.862;2023-05-07T13:29:41;22.50;99.90
12303;DHT22;6214;48.012;7.862;2023-05-07T13:32:08;22.50;99.90
12303;DHT22;6214;48.012;7.862;2023-05-07T13:34:35;22.50;99.90
12303;DHT22;6214;48.012;7.862;2023-05-07T13:37:03;22.40;99.90
12303;DHT22;6214;48.012;7.862;2023-05-07T13:39:30;22.60;99.90
12303;DHT22;6214;48.012;7.862;2023-05-07T13:41:58;22.60;99.90
12303;DHT22;6214;48.012;7.862;2023-05-07T13:44:26;22.60;99.90
12303;DHT22;6214;48.012;7.862;2023-05-07T13:46:53;22.70;99.90
12303;DHT22;6214;48.012;7.862;2023-05-07T13:49:20;22.60;99.90
12303;DHT22;6214;48.012;7.862;2023-05-07T13:51:47;22.40;99.90
12303;DHT22;6214;48.012;7.862;2023-05-07T13:54:14;22.70;99.90
12303;DHT22;6214;48.012;7.862;2023-05-07T13:56:42;23.10;99.90
12303;DHT22;6214;48.012;7.862;2023-05-07T13:59:09;23.50;99.90
12303;DHT22;6214;48.012;7.862;2023-05-07T14:01:36;24.00;99.90
12303;DHT22;6214;48.012;7.862;2023-05-07T14:04:04;23.50;99.90
12303;DHT22;6214;48.012;7.862;2023-05-07T14:06:31;23.30;99.90
12303;DHT22;6214;48.012;7.862;2023-05-07T14:08:58;23.30;99.90
12303;DHT22;6214;48.012;7.862;2023-05-07T14:11:25;23.20;99.90
12303;DHT22;6214;48.012;7.862;2023-05-07T14:13:52;23.40;99.90
12303;DHT22;6214;48.012;7.862;2023-05-07T14:16:19;23.10;99.90
12303;DHT22;6214;48.012;7.862;2023-05-07T14:18:46;22.60;99.90
12303;DHT22;6214;48.012;7.862;2023-05-07T14:21:14;22.40;99.90
12303;DHT22;6214;48.012;7.862;2023-05-07T14:23:41;22.80;99.90
12303;DHT22;6214;48.012;7.862;2023-05-07T14:26:08;23.00;99.90
12303;DHT22;6214;48.012;7.862;2023-05-07T14:28:35;23.10;99.90
12303;DHT22;6214;48.012;7.862;2023-05-07T14:31:02;23.40;99.90
12303;DHT22;6214;48.012;7.862;2023-05-07T14:33:29;23.40;99.90
12303;DHT22;6214;48.012;7.862;2023-05-07T14:35:56;23.20;99.90
12303;DHT22;6214;48.012;7.862;2023-05-07T14:38:23;23.40;99.90
12303;DHT22;6214;48.012;7.862;2023-05-07T14:40:50;23.60;99.90
12303;DHT22;6214;48.012;7.862;2023-05-07T14:43:19;23.50;99.90
12303;DHT22;6214;48.012;7.862;2023-05-07T14:45:46;23.60;99.90
12303;DHT22;6214;48.012;7.862;2023-05-07T14:48:13;23.20;99.90
12303;DHT22;6214;48.012;7.862;2023-05-07T14:50:42;23.10;99.90
12303;DHT22;6214;48.012;7.862;2023-05-07T14:53:09;23.00;99.90
12303;DHT22;6214;48.012;7.862;2023-05-07T14:55:36;22.90;99.90
12303;DHT22;6214;48.012;7.862;2023-05-07T14:58:04;22.90;99.90
12303;DHT22;6214;48.012;7.862;2023-05-07T15:00:31;23.20;99.90
12303;DHT22;6214;48.012;7.862;2023-05-07T15:03:06;23.10;99.90
12303;DHT22;6214;48.012;7.862;2023-05-07T15:05:34;23.10;99.90
12303;DHT22;6214;48.012;7.862;2023-05-07T15:08:02;22.70;99.90
12303;DHT22;6214;48.012;7.862;2023-05-07T15:10:29;22.70;99.90
12303;DHT22;6214;48.012;7.862;2023-05-07T15:12:56;22.70;99.90
12303;DHT22;6214;48.012;7.862;2023-05-07T15:15:23;22.80;99.90
12303;DHT22;6214;48.012;7.862;2023-05-07T15:17:50;22.70;99.90
12303;DHT22;6214;48.012;7.862;2023-05-07T15:20:17;22.50;99.90
12303;DHT22;6214;48.012;7.862;2023-05-07T15:22:44;22.60;99.90
12303;DHT22;6214;48.012;7.862;2023-05-07T15:25:11;22.70;99.90
12303;DHT22;6214;48.012;7.862;2023-05-07T15:27:39;22.70;99.90
12303;DHT22;6214;48.012;7.862;2023-05-07T15:30:06;22.60;99.90
12303;DHT22;6214;48.012;7.862;2023-05-07T15:32:33;22.70;99.90
12303;DHT22;6214;48.012;7.862;2023-05-07T15:35:01;22.80;99.90
12303;DHT22;6214;48.012;7.862;2023-05-07T15:37:30;23.00;99.90
12303;DHT22;6214;48.012;7.862;2023-05-07T15:39:58;23.00;99.90
12303;DHT22;6214;48.012;7.862;2023-05-07T15:42:25;23.10;99.90
12303;DHT22;6214;48.012;7.862;2023-05-07T15:44:52;22.90;99.90
12303;DHT22;6214;48.012;7.862;2023-05-07T15:47:20;22.90;99.90
12303;DHT22;6214;48.012;7.862;2023-05-07T15:49:47;23.00;99.90
12303;DHT22;6214;48.012;7.862;2023-05-07T15:52:14;22.90;99.90
12303;DHT22;6214;48.012;7.862;2023-05-07T15:54:43;22.90;99.90
12303;DHT22;6214;48.012;7.862;2023-05-07T15:57:10;23.00;99.90
12303;DHT22;6214;48.012;7.862;2023-05-07T15:59:38;22.90;99.90
12303;DHT22;6214;48.012;7.862;2023-05-07T16:02:05;22.90;99.90
12303;DHT22;6214;48.012;7.862;2023-05-07T16:04:34;22.90;99.90